sensor_id;sensor_type;location;lat;lon;timestamp;temperature;humidity
7784;DHT22;19359;51.402;6.778;2023-12-28T00:02:09;9.50;99.90
7784;DHT22;19359;51.402;6.778;2023-12-28T00:04:36;9.10;1.00
7784;DHT22;19359;51.402;6.778;2023-12-28T00:07:04;9.10;1.00
7784;DHT22;19359;51.402;6.778;2023-12-28T00:09:33;9.40;1.00
7784;DHT22;19359;51.402;6.778;2023-12-28T00:12:00;9.30;1.00
7784;DHT22;19359;51.402;6.778;2023-12-28T00:14:26;9.30;1.00
7784;DHT22;19359;51.402;6.778;2023-12-28T00:16:53;9.10;1.00
7784;DHT22;19359;51.402;6.778;2023-12-28T00:19:19;9.30;1.00
7784;DHT22;19359;51.402;6.778;2023-12-28T00:21:47;9.50;1.00
7784;DHT22;19359;51.402;6.778;2023-12-28T00:24:16;9.40;99.90
7784;DHT22;19359;51.402;6.778;2023-12-28T00:26:43;9.60;99.90
7784;DHT22;19359;51.402;6.778;2023-12-28T00:29:09;9.50;48.60
7784;DHT22;19359;51.402;6.778;2023-12-28T00:31:36;9.40;1.00
7784;DHT22;19359;51.402;6.778;2023-12-28T00:34:03;9.60;99.90
7784;DHT22;19359;51.402;6.778;2023-12-28T00:36:30;9.50;99.90
7784;DHT22;19359;51.402;6.778;2023-12-28T00:38:57;9.50;1.00
7784;DHT22;19359;51.402;6.778;2023-12-28T00:41:28;9.60;1.00
7784;DHT22;19359;51.402;6.778;2023-12-28T00:43:55;9.60;99.90
7784;DHT22;19359;51.402;6.778;2023-12-28T00:46:21;9.50;1.00
7784;DHT22;19359;51.402;6.778;2023-12-28T00:48:48;9.70;99.90
7784;DHT22;19359;51.402;6.778;2023-12-28T00:51:15;9.50;99.90
7784;DHT22;19359;51.402;6.778;2023-12-28T00:53:42;9.80;99.90
7784;DHT22;19359;51.402;6.778;2023-12-28T00:56:09;9.60;99.90
7784;DHT22;19359;51.402;6.778;2023-12-28T00:58:40;9.60;99.90
7784;DHT22;19359;51.402;6.778;2023-12-28T01:01:09;9.80;99.90
7784;DHT22;19359;51.402;6.778;2023-12-28T01:03:36;9.70;99.90
7784;DHT22;19359;51.402;6.778;2023-12-28T01:06:03;9.60;1.00
7784;DHT22;19359;51.402;6.778;2023-12-28T01:08:30;9.70;99.90
7784;DHT22;19359;51.402;6.778;2023-12-28T01:10:59;9.60;99.90
7784;DHT22;19359;51.402;6.778;2023-12-28T01:13:27;9.60;99.90
7784;DHT22;19359;51.402;6.778;2023-12-28T01:15:55;9.60;1.00
7784;DHT22;19359;51.402;6.778;2023-12-28T01:18:22;9.60;99.90
7784;DHT22;19359;51.402;6.778;2023-12-28T01:20:49;9.60;1.00
7784;DHT22;19359;51.402;6.778;2023-12-28T01:23:16;9.60;99.90
7784;DHT22;19359;51.402;6.778;2023-12-28T01:25:42;9.70;99.90
7784;DHT22;19359;51.402;6.778;2023-12-28T01:28:09;9.60;1.00
7784;DHT22;19359;51.402;6.778;2023-12-28T01:30:36;9.50;1.00
7784;DHT22;19359;51.402;6.778;2023-12-28T01:33:04;9.50;1.00
7784;DHT22;19359;51.402;6.778;2023-12-28T01:35:31;9.50;1.00
7784;DHT22;19359;51.402;6.778;2023-12-28T01:37:58;9.50;1.00
7784;DHT22;19359;51.402;6.778;2023-12-28T01:40:27;9.60;1.00
7784;DHT22;19359;51.402;6.778;2023-12-28T01:42:54;9.50;1.00
7784;DHT22;19359;51.402;6.778;2023-12-28T01:45:20;9.50;1.00
7784;DHT22;19359;51.402;6.778;2023-12-28T01:47:48;9.50;99.90
7784;DHT22;19359;51.402;6.778;2023-12-28T01:50:16;9.60;99.90
7784;DHT22;19359;51.402;6.778;2023-12-28T01:52:43;9.60;99.90
7784;DHT22;19359;51.402;6.778;2023-12-28T01:55:10;9.60;99.90
7784;DHT22;19359;51.402;6.778;2023-12-28T01:57:38;9.60;99.90
7784;DHT22;19359;51.402;6.778;2023-12-28T02:00:06;9.50;99.90
7784;DHT22;19359;51.402;6.778;2023-12-28T02:02:34;9.60;99.90
7784;DHT22;19359;51.402;6.778;2023-12-28T02:05:01;10.60;99.90
7784;DHT22;19359;51.402;6.778;2023-12-28T02:07:30;9.60;99.90
7784;DHT22;19359;51.402;6.778;2023-12-28T02:09:58;9.60;99.90
7784;DHT22;19359;51.402;6.778;2023-12-28T02:12:25;9.40;99.90
7784;DHT22;19359;51.402;6.778;2023-12-28T02:14:52;9.50;99.90
7784;DHT22;19359;51.402;6.778;2023-12-28T02:17:23;9.50;99.90
7784;DHT22;19359;51.402;6.778;2023-12-28T02:19:55;9.60;99.90
7784;DHT22;19359;51.402;6.778;2023-12-28T02:22:25;9.60;99.90
7784;DHT22;19359;51.402;6.778;2023-12-28T02:25:07;9.60;99.90
7784;DHT22;19359;51.402;6.778;2023-12-28T02:27:35;9.60;99.90
7784;DHT22;19359;51.402;6.778;2023-12-28T02:30:05;9.60;99.90
7784;DHT22;19359;51.402;6.778;2023-12-28T02:32:39;9.60;99.90
7784;DHT22;19359;51.402;6.778;2023-12-28T02:35:16;9.60;99.90
7784;DHT22;19359;51.402;6.778;2023-12-28T02:37:44;9.60;99.90
7784;DHT22;19359;51.402;6.778;2023-12-28T02:40:15;9.60;99.90
7784;DHT22;19359;51.402;6.778;2023-12-28T02:42:43;9.50;99.90
7784;DHT22;19359;51.402;6.778;2023-12-28T02:45:10;9.50;99.90
7784;DHT22;19359;51.402;6.778;2023-12-28T02:47:37;9.50;99.90
7784;DHT22;19359;51.402;6.778;2023-12-28T02:50:05;9.50;99.90
7784;DHT22;19359;51.402;6.778;2023-12-28T02:52:32;9.50;99.90
7784;DHT22;19359;51.402;6.778;2023-12-28T02:54:59;9.60;99.90
7784;DHT22;19359;51.402;6.778;2023-12-28T02:57:27;9.40;99.90
7784;DHT22;19359;51.402;6.778;2023-12-28T02:59:54;9.40;99.90
7784;DHT22;19359;51.402;6.778;2023-12-28T03:02:22;9.50;99.90
7784;DHT22;19359;51.402;6.778;2023-12-28T03:04:52;9.60;99.90
7784;DHT22;19359;51.402;6.778;2023-12-28T03:07:19;9.60;99.90
7784;DHT22;19359;51.402;6.778;2023-12-28T03:09:46;9.60;99.90
7784;DHT22;19359;51.402;6.778;2023-12-28T03:12:13;9.60;99.90
7784;DHT22;19359;51.402;6.778;2023-12-28T03:14:43;9.80;99.90
7784;DHT22;19359;51.402;6.778;2023-12-28T03:17:10;10.40;99.90
7784;DHT22;19359;51.402;6.778;2023-12-28T03:19:37;9.60;99.90
7784;DHT22;19359;51.402;6.778;2023-12-28T03:22:04;9.70;99.90
7784;DHT22;19359;51.402;6.778;2023-12-28T03:24:31;9.70;99.90
7784;DHT22;19359;51.402;6.778;2023-12-28T03:26:59;9.60;99.90
7784;DHT22;19359;51.402;6.778;2023-12-28T03:29:28;9.80;99.90
7784;DHT22;19359;51.402;6.778;2023-12-28T03:31:57;9.70;99.90
7784;DHT22;19359;51.402;6.778;2023-12-28T03:34:24;9.70;99.90
7784;DHT22;19359;51.402;6.778;2023-12-28T03:36:52;9.80;99.90
7784;DHT22;19359;51.402;6.778;2023-12-28T03:39:19;10.10;99.90
7784;DHT22;19359;51.402;6.778;2023-12-28T03:41:45;9.80;99.90
7784;DHT22;19359;51.402;6.778;2023-12-28T03:44:13;9.70;99.90
7784;DHT22;19359;51.402;6.778;2023-12-28T03:46:40;9.80;99.90
7784;DHT22;19359;51.402;6.778;2023-12-28T03:49:08;9.80;99.90
7784;DHT22;19359;51.402;6.778;2023-12-28T03:51:35;9.90;99.90
7784;DHT22;19359;51.402;6.778;2023-12-28T03:54:03;9.60;99.90
7784;DHT22;19359;51.402;6.778;2023-12-28T03:56:29;9.70;99.90
7784;DHT22;19359;51.402;6.778;2023-12-28T03:58:58;9.70;99.90
7784;DHT22;19359;51.402;6.778;2023-12-28T04:01:25;9.70;99.90
7784;DHT22;19359;51.402;6.778;2023-12-28T04:03:54;9.80;99.90
7784;DHT22;19359;51.402;6.778;2023-12-28T04:06:22;9.80;99.90
7784;DHT22;19359;51.402;6.778;2023-12-28T04:08:49;9.80;99.90
7784;DHT22;19359;51.402;6.778;2023-12-28T04:11:16;9.80;99.90
7784;DHT22;19359;51.402;6.778;2023-12-28T04:13:43;9.80;99.90
7784;DHT22;19359;51.402;6.778;2023-12-28T04:16:12;9.80;99.90
7784;DHT22;19359;51.402;6.778;2023-12-28T04:18:39;9.80;99.90
7784;DHT22;19359;51.402;6.778;2023-12-28T04:21:08;9.80;99.90
7784;DHT22;19359;51.402;6.778;2023-12-28T04:23:36;11.30;99.90
7784;DHT22;19359;51.402;6.778;2023-12-28T04:26:03;9.90;99.90
7784;DHT22;19359;51.402;6.778;2023-12-28T04:28:30;9.80;99.90
7784;DHT22;19359;51.402;6.778;2023-12-28T04:31:02;9.90;99.90
7784;DHT22;19359;51.402;6.778;2023-12-28T04:33:29;9.90;99.90
7784;DHT22;19359;51.402;6.778;2023-12-28T04:35:55;13.10;99.90
7784;DHT22;19359;51.402;6.778;2023-12-28T04:38:23;9.90;99.90
7784;DHT22;19359;51.402;6.778;2023-12-28T04:40:51;9.90;99.90
7784;DHT22;19359;51.402;6.778;2023-12-28T04:43:18;9.80;99.90
7784;DHT22;19359;51.402;6.778;2023-12-28T04:45:45;9.90;99.90
7784;DHT22;19359;51.402;6.778;2023-12-28T04:48:12;9.90;99.90
7784;DHT22;19359;51.402;6.778;2023-12-28T04:50:39;9.80;99.90
7784;DHT22;19359;51.402;6.778;2023-12-28T04:53:06;9.90;99.90
7784;DHT22;19359;51.402;6.778;2023-12-28T04:55:33;9.90;99.90
7784;DHT22;19359;51.402;6.778;2023-12-28T04:58:01;9.90;99.90
7784;DHT22;19359;51.402;6.778;2023-12-28T05:00:28;9.80;99.90
7784;DHT22;19359;51.402;6.778;2023-12-28T05:02:55;9.80;99.90
7784;DHT22;19359;51.402;6.778;2023-12-28T05:05:22;9.90;99.90
7784;DHT22;19359;51.402;6.778;2023-12-28T05:07:48;10.00;99.90
7784;DHT22;19359;51.402;6.778;2023-12-28T05:10:15;9.90;99.90
7784;DHT22;19359;51.402;6.778;2023-12-28T05:12:42;9.90;99.90
7784;DHT22;19359;51.402;6.778;2023-12-28T05:15:10;9.90;99.90
7784;DHT22;19359;51.402;6.778;2023-12-28T05:17:37;10.00;99.90
7784;DHT22;19359;51.402;6.778;2023-12-28T05:20:05;9.90;99.90
7784;DHT22;19359;51.402;6.778;2023-12-28T05:22:32;9.90;99.90
7784;DHT22;19359;51.402;6.778;2023-12-28T05:24:59;10.20;99.90
7784;DHT22;19359;51.402;6.778;2023-12-28T05:27:25;10.00;99.90
7784;DHT22;19359;51.402;6.778;2023-12-28T05:29:52;10.00;99.90
7784;DHT22;19359;51.402;6.778;2023-12-28T05:32:20;10.10;99.90
7784;DHT22;19359;51.402;6.778;2023-12-28T05:34:48;10.00;62.40
7784;DHT22;19359;51.402;6.778;2023-12-28T05:37:15;10.00;26.30
7784;DHT22;19359;51.402;6.778;2023-12-28T05:39:42;10.10;99.90
7784;DHT22;19359;51.402;6.778;2023-12-28T05:42:09;10.10;99.90
7784;DHT22;19359;51.402;6.778;2023-12-28T05:44:35;10.30;99.90
7784;DHT22;19359;51.402;6.778;2023-12-28T05:47:02;10.10;99.90
7784;DHT22;19359;51.402;6.778;2023-12-28T05:49:31;10.10;99.90
7784;DHT22;19359;51.402;6.778;2023-12-28T05:51:58;10.20;99.90
7784;DHT22;19359;51.402;6.778;2023-12-28T05:54:25;10.10;99.90
7784;DHT22;19359;51.402;6.778;2023-12-28T05:56:52;10.10;99.90
7784;DHT22;19359;51.402;6.778;2023-12-28T05:59:19;10.10;99.90
7784;DHT22;19359;51.402;6.778;2023-12-28T06:01:47;10.10;99.90
7784;DHT22;19359;51.402;6.778;2023-12-28T06:04:14;10.10;99.90
7784;DHT22;19359;51.402;6.778;2023-12-28T06:06:42;10.10;99.90
7784;DHT22;19359;51.402;6.778;2023-12-28T06:09:09;10.10;99.90
7784;DHT22;19359;51.402;6.778;2023-12-28T06:11:37;10.10;99.90
7784;DHT22;19359;51.402;6.778;2023-12-28T06:14:04;10.20;99.90
7784;DHT22;19359;51.402;6.778;2023-12-28T06:16:30;10.10;99.90
7784;DHT22;19359;51.402;6.778;2023-12-28T06:18:59;10.10;99.90
7784;DHT22;19359;51.402;6.778;2023-12-28T06:21:26;10.10;99.90
7784;DHT22;19359;51.402;6.778;2023-12-28T06:23:55;10.70;99.90
7784;DHT22;19359;51.402;6.778;2023-12-28T06:26:21;10.10;99.90
7784;DHT22;19359;51.402;6.778;2023-12-28T06:28:48;10.20;1.00
7784;DHT22;19359;51.402;6.778;2023-12-28T06:31:15;10.20;1.00
7784;DHT22;19359;51.402;6.778;2023-12-28T06:33:42;10.10;99.90
7784;DHT22;19359;51.402;6.778;2023-12-28T06:36:10;10.10;99.90
7784;DHT22;19359;51.402;6.778;2023-12-28T06:38:37;10.20;1.00
7784;DHT22;19359;51.402;6.778;2023-12-28T06:41:11;9.90;99.90
7784;DHT22;19359;51.402;6.778;2023-12-28T06:43:38;10.10;99.90
7784;DHT22;19359;51.402;6.778;2023-12-28T06:46:05;10.10;1.00
7784;DHT22;19359;51.402;6.778;2023-12-28T06:48:32;10.10;1.00
7784;DHT22;19359;51.402;6.778;2023-12-28T06:51:01;10.00;1.00
7784;DHT22;19359;51.402;6.778;2023-12-28T06:53:27;10.00;1.00
7784;DHT22;19359;51.402;6.778;2023-12-28T06:55:54;10.20;1.00
7784;DHT22;19359;51.402;6.778;2023-12-28T06:58:22;10.10;67.50
7784;DHT22;19359;51.402;6.778;2023-12-28T07:00:49;10.00;1.00
7784;DHT22;19359;51.402;6.778;2023-12-28T07:03:16;10.10;99.90
7784;DHT22;19359;51.402;6.778;2023-12-28T07:05:43;10.10;1.00
7784;DHT22;19359;51.402;6.778;2023-12-28T07:08:10;10.10;1.00
7784;DHT22;19359;51.402;6.778;2023-12-28T07:10:36;10.10;1.00
7784;DHT22;19359;51.402;6.778;2023-12-28T07:13:03;10.10;1.00
7784;DHT22;19359;51.402;6.778;2023-12-28T07:15:32;10.10;35.70
7784;DHT22;19359;51.402;6.778;2023-12-28T07:20:26;10.10;99.90
7784;DHT22;19359;51.402;6.778;2023-12-28T07:22:52;10.20;1.00
7784;DHT22;19359;51.402;6.778;2023-12-28T07:25:19;10.10;99.90
7784;DHT22;19359;51.402;6.778;2023-12-28T07:27:49;10.20;1.00
7784;DHT22;19359;51.402;6.778;2023-12-28T07:30:16;10.20;22.60
7784;DHT22;19359;51.402;6.778;2023-12-28T07:32:44;10.20;1.00
7784;DHT22;19359;51.402;6.778;2023-12-28T07:35:11;10.20;1.00
7784;DHT22;19359;51.402;6.778;2023-12-28T07:37:38;10.20;1.00
7784;DHT22;19359;51.402;6.778;2023-12-28T07:40:06;10.20;1.00
7784;DHT22;19359;51.402;6.778;2023-12-28T07:42:33;10.30;1.00
7784;DHT22;19359;51.402;6.778;2023-12-28T07:45:01;10.30;1.00
7784;DHT22;19359;51.402;6.778;2023-12-28T07:47:28;10.40;1.00
7784;DHT22;19359;51.402;6.778;2023-12-28T07:49:57;10.50;1.00
7784;DHT22;19359;51.402;6.778;2023-12-28T07:52:24;10.40;1.00
7784;DHT22;19359;51.402;6.778;2023-12-28T07:54:50;10.40;1.00
7784;DHT22;19359;51.402;6.778;2023-12-28T07:57:18;10.20;1.00
7784;DHT22;19359;51.402;6.778;2023-12-28T07:59:44;10.30;1.00
7784;DHT22;19359;51.402;6.778;2023-12-28T08:02:11;10.30;1.00
7784;DHT22;19359;51.402;6.778;2023-12-28T08:04:38;10.40;1.00
7784;DHT22;19359;51.402;6.778;2023-12-28T08:07:06;10.30;99.90
7784;DHT22;19359;51.402;6.778;2023-12-28T08:09:34;10.40;99.90
7784;DHT22;19359;51.402;6.778;2023-12-28T08:12:01;10.30;91.80
7784;DHT22;19359;51.402;6.778;2023-12-28T08:14:29;10.30;1.00
7784;DHT22;19359;51.402;6.778;2023-12-28T08:16:56;10.30;1.00
7784;DHT22;19359;51.402;6.778;2023-12-28T08:19:23;10.30;1.00
7784;DHT22;19359;51.402;6.778;2023-12-28T08:21:49;10.30;1.00
7784;DHT22;19359;51.402;6.778;2023-12-28T08:24:17;10.30;1.00
7784;DHT22;19359;51.402;6.778;2023-12-28T08:26:44;10.30;1.00
7784;DHT22;19359;51.402;6.778;2023-12-28T08:29:11;10.50;1.00
7784;DHT22;19359;51.402;6.778;2023-12-28T08:31:38;10.40;1.00
7784;DHT22;19359;51.402;6.778;2023-12-28T08:34:06;10.40;1.00
7784;DHT22;19359;51.402;6.778;2023-12-28T08:36:33;10.40;1.00
7784;DHT22;19359;51.402;6.778;2023-12-28T08:39:00;10.40;1.00
7784;DHT22;19359;51.402;6.778;2023-12-28T08:41:28;10.90;1.00
7784;DHT22;19359;51.402;6.778;2023-12-28T08:43:54;10.50;1.00
7784;DHT22;19359;51.402;6.778;2023-12-28T08:46:22;10.50;1.00
7784;DHT22;19359;51.402;6.778;2023-12-28T08:48:50;10.50;1.00
7784;DHT22;19359;51.402;6.778;2023-12-28T08:51:17;10.50;1.00
7784;DHT22;19359;51.402;6.778;2023-12-28T08:53:43;10.40;99.90
7784;DHT22;19359;51.402;6.778;2023-12-28T08:56:15;10.40;99.90
7784;DHT22;19359;51.402;6.778;2023-12-28T08:58:44;10.50;99.90
7784;DHT22;19359;51.402;6.778;2023-12-28T09:01:16;10.60;99.90
7784;DHT22;19359;51.402;6.778;2023-12-28T09:03:43;10.60;99.90
7784;DHT22;19359;51.402;6.778;2023-12-28T09:06:10;10.60;86.80
7784;DHT22;19359;51.402;6.778;2023-12-28T09:08:37;10.50;99.90
7784;DHT22;19359;51.402;6.778;2023-12-28T09:11:04;10.50;99.90
7784;DHT22;19359;51.402;6.778;2023-12-28T09:13:30;10.50;99.90
7784;DHT22;19359;51.402;6.778;2023-12-28T09:15:59;10.60;99.90
7784;DHT22;19359;51.402;6.778;2023-12-28T09:18:26;10.60;99.90
7784;DHT22;19359;51.402;6.778;2023-12-28T09:20:52;11.10;99.90
7784;DHT22;19359;51.402;6.778;2023-12-28T09:23:20;10.50;99.90
7784;DHT22;19359;51.402;6.778;2023-12-28T09:25:47;10.90;99.90
7784;DHT22;19359;51.402;6.778;2023-12-28T09:28:14;10.70;99.90
7784;DHT22;19359;51.402;6.778;2023-12-28T09:30:41;10.90;99.90
7784;DHT22;19359;51.402;6.778;2023-12-28T09:33:09;10.70;99.90
7784;DHT22;19359;51.402;6.778;2023-12-28T09:35:37;10.80;99.90
7784;DHT22;19359;51.402;6.778;2023-12-28T09:38:04;10.70;99.90
7784;DHT22;19359;51.402;6.778;2023-12-28T09:40:31;10.80;99.90
7784;DHT22;19359;51.402;6.778;2023-12-28T09:43:13;10.80;99.90
7784;DHT22;19359;51.402;6.778;2023-12-28T09:45:39;10.80;99.90
7784;DHT22;19359;51.402;6.778;2023-12-28T09:48:08;10.80;99.90
7784;DHT22;19359;51.402;6.778;2023-12-28T09:50:36;10.90;99.90
7784;DHT22;19359;51.402;6.778;2023-12-28T09:53:03;10.80;99.90
7784;DHT22;19359;51.402;6.778;2023-12-28T09:55:30;10.80;99.90
7784;DHT22;19359;51.402;6.778;2023-12-28T09:57:58;10.80;55.00
7784;DHT22;19359;51.402;6.778;2023-12-28T10:00:26;10.90;99.90
7784;DHT22;19359;51.402;6.778;2023-12-28T10:02:54;10.90;99.90
7784;DHT22;19359;51.402;6.778;2023-12-28T10:05:22;10.90;99.90
7784;DHT22;19359;51.402;6.778;2023-12-28T10:07:50;11.00;99.90
7784;DHT22;19359;51.402;6.778;2023-12-28T10:10:17;11.00;99.90
7784;DHT22;19359;51.402;6.778;2023-12-28T10:12:46;11.00;99.90
7784;DHT22;19359;51.402;6.778;2023-12-28T10:15:13;11.10;99.90
7784;DHT22;19359;51.402;6.778;2023-12-28T10:17:40;11.00;99.90
7784;DHT22;19359;51.402;6.778;2023-12-28T10:20:07;11.00;99.90
7784;DHT22;19359;51.402;6.778;2023-12-28T10:22:37;11.00;99.90
7784;DHT22;19359;51.402;6.778;2023-12-28T10:25:04;11.00;99.90
7784;DHT22;19359;51.402;6.778;2023-12-28T10:27:32;11.00;70.80
7784;DHT22;19359;51.402;6.778;2023-12-28T10:29:59;10.90;99.90
7784;DHT22;19359;51.402;6.778;2023-12-28T10:32:26;11.10;99.90
7784;DHT22;19359;51.402;6.778;2023-12-28T10:34:53;10.90;1.00
7784;DHT22;19359;51.402;6.778;2023-12-28T10:37:21;11.00;1.00
7784;DHT22;19359;51.402;6.778;2023-12-28T10:39:52;11.00;1.00
7784;DHT22;19359;51.402;6.778;2023-12-28T10:42:28;11.00;1.00
7784;DHT22;19359;51.402;6.778;2023-12-28T10:45:02;11.00;1.00
7784;DHT22;19359;51.402;6.778;2023-12-28T10:47:32;11.00;1.00
7784;DHT22;19359;51.402;6.778;2023-12-28T10:50:03;11.10;1.00
7784;DHT22;19359;51.402;6.778;2023-12-28T10:52:31;11.20;1.00
7784;DHT22;19359;51.402;6.778;2023-12-28T10:55:17;11.00;1.00
7784;DHT22;19359;51.402;6.778;2023-12-28T10:57:51;11.10;1.00
7784;DHT22;19359;51.402;6.778;2023-12-28T11:00:23;10.90;1.00
7784;DHT22;19359;51.402;6.778;2023-12-28T11:02:52;11.20;1.00
7784;DHT22;19359;51.402;6.778;2023-12-28T11:05:20;11.20;1.00
7784;DHT22;19359;51.402;6.778;2023-12-28T11:07:50;11.30;1.00
7784;DHT22;19359;51.402;6.778;2023-12-28T11:10:22;11.30;1.00
7784;DHT22;19359;51.402;6.778;2023-12-28T11:12:51;11.30;1.00
7784;DHT22;19359;51.402;6.778;2023-12-28T11:15:19;11.50;99.90
7784;DHT22;19359;51.402;6.778;2023-12-28T11:17:47;11.40;1.00
7784;DHT22;19359;51.402;6.778;2023-12-28T11:20:15;11.50;99.90
7784;DHT22;19359;51.402;6.778;2023-12-28T11:22:43;11.40;1.00
7784;DHT22;19359;51.402;6.778;2023-12-28T11:25:15;11.50;1.00
7784;DHT22;19359;51.402;6.778;2023-12-28T11:27:45;11.50;99.90
7784;DHT22;19359;51.402;6.778;2023-12-28T11:30:13;11.60;99.90
7784;DHT22;19359;51.402;6.778;2023-12-28T11:32:41;11.60;1.00
7784;DHT22;19359;51.402;6.778;2023-12-28T11:35:11;11.50;1.00
7784;DHT22;19359;51.402;6.778;2023-12-28T11:37:41;11.40;1.00
7784;DHT22;19359;51.402;6.778;2023-12-28T11:40:13;11.20;1.00
7784;DHT22;19359;51.402;6.778;2023-12-28T11:42:54;11.50;1.00
7784;DHT22;19359;51.402;6.778;2023-12-28T11:45:22;11.80;1.00
7784;DHT22;19359;51.402;6.778;2023-12-28T11:47:58;11.60;1.00
7784;DHT22;19359;51.402;6.778;2023-12-28T11:50:26;11.70;1.00
7784;DHT22;19359;51.402;6.778;2023-12-28T11:52:53;11.70;1.00
7784;DHT22;19359;51.402;6.778;2023-12-28T11:55:21;11.80;1.00
7784;DHT22;19359;51.402;6.778;2023-12-28T11:57:51;11.70;1.00
7784;DHT22;19359;51.402;6.778;2023-12-28T12:00:18;11.70;1.00
7784;DHT22;19359;51.402;6.778;2023-12-28T12:02:46;11.70;1.00
7784;DHT22;19359;51.402;6.778;2023-12-28T12:05:17;11.70;1.00
7784;DHT22;19359;51.402;6.778;2023-12-28T12:10:15;11.80;1.00
7784;DHT22;19359;51.402;6.778;2023-12-28T12:15:11;12.00;1.00
7784;DHT22;19359;51.402;6.778;2023-12-28T12:17:38;11.80;1.00
7784;DHT22;19359;51.402;6.778;2023-12-28T12:20:06;11.80;99.90
7784;DHT22;19359;51.402;6.778;2023-12-28T12:22:33;11.70;99.90
7784;DHT22;19359;51.402;6.778;2023-12-28T12:25:00;11.80;99.90
7784;DHT22;19359;51.402;6.778;2023-12-28T12:27:29;11.70;99.90
7784;DHT22;19359;51.402;6.778;2023-12-28T12:29:56;11.80;1.00
7784;DHT22;19359;51.402;6.778;2023-12-28T12:32:24;12.70;99.90
7784;DHT22;19359;51.402;6.778;2023-12-28T12:34:51;11.90;99.90
7784;DHT22;19359;51.402;6.778;2023-12-28T12:37:18;11.80;1.00
7784;DHT22;19359;51.402;6.778;2023-12-28T12:39:45;11.90;1.00
7784;DHT22;19359;51.402;6.778;2023-12-28T12:42:12;12.10;99.90
7784;DHT22;19359;51.402;6.778;2023-12-28T12:44:39;12.00;1.00
7784;DHT22;19359;51.402;6.778;2023-12-28T12:47:07;12.00;99.90
7784;DHT22;19359;51.402;6.778;2023-12-28T12:49:35;12.00;1.00
7784;DHT22;19359;51.402;6.778;2023-12-28T12:52:02;12.00;1.00
7784;DHT22;19359;51.402;6.778;2023-12-28T12:54:29;11.90;99.90
7784;DHT22;19359;51.402;6.778;2023-12-28T12:56:56;11.90;99.90
7784;DHT22;19359;51.402;6.778;2023-12-28T13:01:52;11.80;99.90
7784;DHT22;19359;51.402;6.778;2023-12-28T13:04:20;11.80;99.90
7784;DHT22;19359;51.402;6.778;2023-12-28T13:06:48;11.80;99.90
7784;DHT22;19359;51.402;6.778;2023-12-28T13:09:15;11.90;1.00
7784;DHT22;19359;51.402;6.778;2023-12-28T13:11:42;11.80;99.90
7784;DHT22;19359;51.402;6.778;2023-12-28T13:14:08;11.90;99.90
7784;DHT22;19359;51.402;6.778;2023-12-28T13:16:35;11.90;99.90
7784;DHT22;19359;51.402;6.778;2023-12-28T13:19:02;11.90;99.90
7784;DHT22;19359;51.402;6.778;2023-12-28T13:21:29;11.90;99.90
7784;DHT22;19359;51.402;6.778;2023-12-28T13:23:57;12.00;99.90
7784;DHT22;19359;51.402;6.778;2023-12-28T13:26:27;11.90;1.00
7784;DHT22;19359;51.402;6.778;2023-12-28T13:28:53;11.90;1.00
7784;DHT22;19359;51.402;6.778;2023-12-28T13:31:22;11.60;1.00
7784;DHT22;19359;51.402;6.778;2023-12-28T13:33:48;11.90;1.00
7784;DHT22;19359;51.402;6.778;2023-12-28T13:38:44;12.00;1.00
7784;DHT22;19359;51.402;6.778;2023-12-28T13:41:12;12.10;1.00
7784;DHT22;19359;51.402;6.778;2023-12-28T13:43:39;11.90;20.90
7784;DHT22;19359;51.402;6.778;2023-12-28T13:46:06;11.90;1.00
7784;DHT22;19359;51.402;6.778;2023-12-28T13:48:33;11.80;1.00
7784;DHT22;19359;51.402;6.778;2023-12-28T13:51:01;11.80;74.20
7784;DHT22;19359;51.402;6.778;2023-12-28T13:53:28;11.80;1.00
7784;DHT22;19359;51.402;6.778;2023-12-28T13:55:55;11.70;99.90
7784;DHT22;19359;51.402;6.778;2023-12-28T13:58:23;11.70;59.90
7784;DHT22;19359;51.402;6.778;2023-12-28T14:00:50;11.70;1.00
7784;DHT22;19359;51.402;6.778;2023-12-28T14:03:17;11.70;44.40
7784;DHT22;19359;51.402;6.778;2023-12-28T14:05:43;11.30;99.90
7784;DHT22;19359;51.402;6.778;2023-12-28T14:08:10;11.70;99.90
7784;DHT22;19359;51.402;6.778;2023-12-28T14:10:37;11.70;1.00
7784;DHT22;19359;51.402;6.778;2023-12-28T14:13:04;11.60;1.00
7784;DHT22;19359;51.402;6.778;2023-12-28T14:15:32;11.60;1.00
7784;DHT22;19359;51.402;6.778;2023-12-28T14:20:26;11.60;1.00
7784;DHT22;19359;51.402;6.778;2023-12-28T14:22:54;11.40;99.90
7784;DHT22;19359;51.402;6.778;2023-12-28T14:25:22;11.60;1.00
7784;DHT22;19359;51.402;6.778;2023-12-28T14:27:49;11.50;1.00
7784;DHT22;19359;51.402;6.778;2023-12-28T14:30:17;11.50;1.00
7784;DHT22;19359;51.402;6.778;2023-12-28T14:32:49;11.50;1.00
7784;DHT22;19359;51.402;6.778;2023-12-28T14:35:16;11.40;1.00
7784;DHT22;19359;51.402;6.778;2023-12-28T14:37:43;11.30;1.00
7784;DHT22;19359;51.402;6.778;2023-12-28T14:40:11;11.40;1.00
7784;DHT22;19359;51.402;6.778;2023-12-28T14:42:37;11.40;99.90
7784;DHT22;19359;51.402;6.778;2023-12-28T14:45:05;11.30;1.00
7784;DHT22;19359;51.402;6.778;2023-12-28T14:50:03;11.30;1.00
7784;DHT22;19359;51.402;6.778;2023-12-28T14:52:31;11.30;99.90
7784;DHT22;19359;51.402;6.778;2023-12-28T14:57:25;11.20;99.90
7784;DHT22;19359;51.402;6.778;2023-12-28T14:59:52;11.20;1.00
7784;DHT22;19359;51.402;6.778;2023-12-28T15:02:19;11.20;1.00
7784;DHT22;19359;51.402;6.778;2023-12-28T15:04:46;11.20;1.00
7784;DHT22;19359;51.402;6.778;2023-12-28T15:07:14;11.30;1.00
7784;DHT22;19359;51.402;6.778;2023-12-28T15:09:41;11.30;99.90
7784;DHT22;19359;51.402;6.778;2023-12-28T15:12:09;11.20;1.00
7784;DHT22;19359;51.402;6.778;2023-12-28T15:14:36;11.10;1.00
7784;DHT22;19359;51.402;6.778;2023-12-28T15:17:03;11.10;99.90
7784;DHT22;19359;51.402;6.778;2023-12-28T15:19:31;11.00;1.00
7784;DHT22;19359;51.402;6.778;2023-12-28T15:21:59;11.00;1.00
7784;DHT22;19359;51.402;6.778;2023-12-28T15:24:28;11.00;1.00
7784;DHT22;19359;51.402;6.778;2023-12-28T15:26:55;11.00;1.00
7784;DHT22;19359;51.402;6.778;2023-12-28T15:29:22;11.00;1.00
7784;DHT22;19359;51.402;6.778;2023-12-28T15:31:49;11.40;99.90
7784;DHT22;19359;51.402;6.778;2023-12-28T15:34:16;10.70;99.90
7784;DHT22;19359;51.402;6.778;2023-12-28T15:36:43;10.80;1.00
7784;DHT22;19359;51.402;6.778;2023-12-28T15:39:10;10.90;99.90
7784;DHT22;19359;51.402;6.778;2023-12-28T15:41:38;10.90;99.90
7784;DHT22;19359;51.402;6.778;2023-12-28T15:44:05;10.90;99.90
7784;DHT22;19359;51.402;6.778;2023-12-28T15:46:32;10.90;1.00
7784;DHT22;19359;51.402;6.778;2023-12-28T15:48:59;10.90;1.00
7784;DHT22;19359;51.402;6.778;2023-12-28T15:51:26;11.30;1.00
7784;DHT22;19359;51.402;6.778;2023-12-28T15:53:53;11.20;1.00
7784;DHT22;19359;51.402;6.778;2023-12-28T15:56:19;10.70;1.00
7784;DHT22;19359;51.402;6.778;2023-12-28T15:58:48;10.80;1.00
7784;DHT22;19359;51.402;6.778;2023-12-28T16:01:15;10.80;99.90
7784;DHT22;19359;51.402;6.778;2023-12-28T16:03:43;10.70;1.00
7784;DHT22;19359;51.402;6.778;2023-12-28T16:06:10;10.70;88.70
7784;DHT22;19359;51.402;6.778;2023-12-28T16:08:37;10.60;38.70
7784;DHT22;19359;51.402;6.778;2023-12-28T16:11:04;10.50;99.90
7784;DHT22;19359;51.402;6.778;2023-12-28T16:13:32;10.60;1.00
7784;DHT22;19359;51.402;6.778;2023-12-28T16:16:01;10.60;1.00
7784;DHT22;19359;51.402;6.778;2023-12-28T16:18:28;10.40;1.00
7784;DHT22;19359;51.402;6.778;2023-12-28T16:20:55;10.50;1.00